Susaki Maru — JD3829 — position and weather

sailwx.info

Track history (hours):
 
Tides and Currents Weather Stations Pressure Air Temp Water Temp Dewpoint Dewpoint Depression Visibility Wind Speed Wind Dir Waves Ship Positions

Susaki Maru

Last reported at 2017-Nov-15 06:35 UTC. Time now 2017-Nov-18 21:15 UTC.
Position N 34°50' E 139°12'.

Length 79 m; draft 4.7 m.

Type: Tanker. MMSI: 431006292.

Date/timePositionNaut miles runAvg speedWind from/ knotsBaromVisibWave heightAir tempDewpointWater temp
2017-Nov-15 06:35N 34°50' E 139°12'212.4
2017-Nov-15 06:26N 34°51' E 139°13'912.3
2017-Nov-15 05:42N 34°57' E 139°23'412.1
2017-Nov-15 05:24N 34°59' E 139°26'512.0
2017-Nov-15 05:00N 35°01' E 139°31'611.9
2017-Nov-15 04:30N 35°04' E 139°37'612.4
2017-Nov-15 04:00N 35°08' E 139°43'612.5
2017-Nov-15 03:30N 35°14' E 139°46'612.0
2017-Nov-15 03:01N 35°19' E 139°43'5 9.7
2017-Nov-15 02:31N 35°24' E 139°44'0 0.5
2017-Nov-15 02:00N 35°24' E 139°44'0 0.0
2017-Nov-15 01:30N 35°24' E 139°44'0 0.0
2017-Nov-15 01:00N 35°24' E 139°44'0 0.1
2017-Nov-15 00:30N 35°24' E 139°44'0 0.0
2017-Nov-15 00:00N 35°24' E 139°44'0 0.1
2017-Nov-14 23:31N 35°24' E 139°44'0 0.0
2017-Nov-14 23:00N 35°24' E 139°44'0 0.1
2017-Nov-14 22:30N 35°24' E 139°44'0 0.0
2017-Nov-14 22:00N 35°24' E 139°44'3 5.6
2017-Nov-14 21:30N 35°26' E 139°42'3 6.6
2017-Nov-14 21:00N 35°29' E 139°40'0 0.1
2017-Nov-14 20:29N 35°29' E 139°40'0 0.0
2017-Nov-14 19:59N 35°29' E 139°40'0 0.0
2017-Nov-14 19:29N 35°29' E 139°40'0 0.0
2017-Nov-14 18:59N 35°29' E 139°40'0 0.0
2017-Nov-14 18:29N 35°29' E 139°40'0 0.0
2017-Nov-14 17:59N 35°29' E 139°40'0 0.0
2017-Nov-14 17:29N 35°29' E 139°40'0 0.0
2017-Nov-14 16:59N 35°29' E 139°40'0 0.0
2017-Nov-14 16:29N 35°29' E 139°40'0 0.0
2017-Nov-14 15:59N 35°29' E 139°40'0 0.0
2017-Nov-14 15:29N 35°29' E 139°40'0 0.0
2017-Nov-14 14:59N 35°29' E 139°40'0 0.0
2017-Nov-14 14:29N 35°29' E 139°40'0 0.0
2017-Nov-14 13:59N 35°29' E 139°40'0 0.0
2017-Nov-14 13:29N 35°29' E 139°40'0 0.0
2017-Nov-14 12:59N 35°29' E 139°40'0 0.0
2017-Nov-14 12:29N 35°29' E 139°40'0 0.0
2017-Nov-14 11:59N 35°29' E 139°40'0 0.0
2017-Nov-14 11:29N 35°29' E 139°40'0 0.0
2017-Nov-14 10:59N 35°29' E 139°40'0 0.0
2017-Nov-14 10:29N 35°29' E 139°40'0 0.0
2017-Nov-14 09:59N 35°29' E 139°40'0 0.0
2017-Nov-14 09:29N 35°29' E 139°40'0 0.0
2017-Nov-14 08:59N 35°29' E 139°40'0 0.0
2017-Nov-14 08:29N 35°29' E 139°40'0 0.0
2017-Nov-14 07:59N 35°29' E 139°40'0 0.0
2017-Nov-14 07:29N 35°29' E 139°40'0 0.0
2017-Nov-14 06:59N 35°29' E 139°40'1 2.1
2017-Nov-14 06:31N 35°28' E 139°40'5 9.9
2017-Nov-14 06:01N 35°23' E 139°42'611.1
2017-Nov-14 05:30N 35°18' E 139°45'510.7
2017-Nov-14 05:00N 35°13' E 139°47'611.3
2017-Nov-14 04:30N 35°07' E 139°46'610.6
2017-Nov-14 03:59N 35°03' E 139°43'611.4
2017-Nov-14 03:29N 34°59' E 139°37'511.3
2017-Nov-14 03:00N 34°56' E 139°31'228 4.8
2017-Nov-12 03:08N 34°37' E 134°54'213.3
2017-Nov-12 03:00N 34°37' E 134°56'611.7
2017-Nov-12 02:30N 34°36' E 135°03'611.4
2017-Nov-12 02:00N 34°36' E 135°10'612.2
2017-Nov-12 01:30N 34°37' E 135°18'612.2
2017-Nov-12 01:00N 34°39' E 135°25'3 5.1
2017-Nov-12 00:30N 34°38' E 135°28'0 0.3
2017-Nov-11 23:18N 34°38' E 135°28'0 0.0
2017-Nov-11 17:00N 34°38' E 135°28'0 0.0
2017-Nov-11 16:24N 34°38' E 135°28'0 0.0
2017-Nov-11 16:00N 34°38' E 135°28'0 0.0
2017-Nov-11 15:30N 34°38' E 135°28'0 0.0
2017-Nov-11 15:00N 34°38' E 135°28'0 0.0
2017-Nov-11 14:18N 34°38' E 135°28'0 0.0
2017-Nov-11 14:00N 34°38' E 135°28'0 0.0
2017-Nov-11 13:30N 34°38' E 135°28'0 0.0
2017-Nov-11 13:00N 34°38' E 135°28'0 0.0
2017-Nov-11 12:24N 34°38' E 135°28'0 0.0
2017-Nov-11 12:00N 34°38' E 135°28'0 0.0
2017-Nov-11 11:30N 34°38' E 135°28'0 0.0
2017-Nov-11 11:00N 34°38' E 135°28'0 0.0
2017-Nov-11 10:30N 34°38' E 135°28'0 0.0
2017-Nov-11 09:18N 34°38' E 135°28'0 0.0
2017-Nov-11 05:54N 34°38' E 135°28'0 0.0
2017-Nov-11 05:24N 34°38' E 135°28'0 0.0
2017-Nov-11 05:00N 34°38' E 135°28'0 0.0
2017-Nov-11 04:30N 34°38' E 135°28'0 0.0
2017-Nov-11 04:00N 34°38' E 135°28'0 0.0
2017-Nov-11 03:30N 34°38' E 135°28'0 0.0
2017-Nov-11 02:54N 34°38' E 135°28'0 0.0
2017-Nov-11 02:30N 34°38' E 135°28'0 0.0
2017-Nov-11 01:18N 34°38' E 135°28'0 0.0
2017-Nov-11 00:54N 34°38' E 135°28'0 0.0
2017-Nov-11 00:24N 34°38' E 135°28'0 0.0
2017-Nov-11 00:00N 34°38' E 135°28'0 0.0
2017-Nov-10 23:24N 34°38' E 135°28'0 0.0
2017-Nov-10 23:00N 34°38' E 135°28'0 0.0
2017-Nov-10 22:30N 34°38' E 135°28'1 1.7
2017-Nov-10 22:00N 34°38' E 135°27'3 6.0
2017-Nov-10 21:30N 34°38' E 135°23'5 9.3
2017-Nov-10 21:00N 34°36' E 135°19'0 0.1
2017-Nov-10 20:21N 34°36' E 135°19'0 0.0
2017-Nov-10 19:51N 34°36' E 135°19'0 0.0
2017-Nov-10 19:27N 34°36' E 135°19'0 0.0
2017-Nov-10 18:51N 34°36' E 135°19'0 0.1
2017-Nov-10 18:15N 34°36' E 135°19'0 0.0
2017-Nov-10 17:09N 34°36' E 135°19'0 0.0
2017-Nov-10 15:51N 34°36' E 135°19'1 2.8
2017-Nov-10 15:30N 34°35' E 135°18'611.7
2017-Nov-10 15:00N 34°30' E 135°14'611.6
2017-Nov-10 14:30N 34°26' E 135°10'611.6
2017-Nov-10 14:01N 34°21' E 135°06'611.5
2017-Nov-10 13:30N 34°16' E 135°03'611.4
2017-Nov-10 13:00N 34°10' E 135°01'711.4
2017-Nov-10 12:24N 34°04' E 134°58'  
2017-Nov-06 02:28N 35°26' E 139°42'0 0.0
2017-Nov-06 01:58N 35°26' E 139°42'0 0.0
2017-Nov-06 01:28N 35°26' E 139°42'0 0.0
2017-Nov-06 00:58N 35°26' E 139°42'0 0.0
2017-Nov-06 00:25N 35°26' E 139°42'0 0.0
2017-Nov-05 23:58N 35°26' E 139°42'0 0.0
2017-Nov-05 23:28N 35°26' E 139°42'0 0.0
2017-Nov-05 22:58N 35°26' E 139°42'0 0.0
2017-Nov-05 22:28N 35°26' E 139°42'0 0.0
2017-Nov-05 21:55N 35°26' E 139°42'0 0.0
2017-Nov-05 21:25N 35°26' E 139°42'0 0.1
2017-Nov-05 20:58N 35°26' E 139°42'0 0.0
2017-Nov-05 20:28N 35°26' E 139°42'0 0.1
2017-Nov-05 19:58N 35°26' E 139°42'0 0.0
2017-Nov-05 19:25N 35°26' E 139°42'0 0.0
2017-Nov-05 18:58N 35°26' E 139°42'0 0.0
2017-Nov-05 18:28N 35°26' E 139°42'0 0.0
2017-Nov-05 17:58N 35°26' E 139°42'0 0.1
2017-Nov-05 17:28N 35°26' E 139°42'0 0.0
2017-Nov-05 16:58N 35°26' E 139°42'0 0.0
2017-Nov-05 16:28N 35°26' E 139°42'0 0.1
2017-Nov-05 16:00N 35°26' E 139°42'510.5
2017-Nov-05 15:30N 35°21' E 139°43'611.3
2017-Nov-05 15:00N 35°16' E 139°46'510.2
2017-Nov-05 14:30N 35°11' E 139°46'510.4
2017-Nov-05 14:00N 35°06' E 139°45'510.9
2017-Nov-05 13:30N 35°02' E 139°39'612.3
2017-Nov-05 13:00N 34°59' E 139°33'612.5
2017-Nov-05 12:30N 34°55' E 139°27'  
Track history (hours):
 
Tides and Currents Weather Stations Pressure Air Temp Water Temp Dewpoint Dewpoint Depression Visibility Wind Speed Wind Dir Waves Ship Positions

Susaki Maru

Last reported at 2017-Nov-15 06:35 UTC. Time now 2017-Nov-18 21:15 UTC.
Position N 34°50' E 139°12'.

Length 79 m; draft 4.7 m.

Type: Tanker. MMSI: 431006292.

Date/timePositionNaut miles runAvg speedWind from/ knotsBaromVisibWave heightAir tempDewpointWater temp
2017-Nov-15 06:35N 34°50' E 139°12'212.4
2017-Nov-15 06:26N 34°51' E 139°13'912.3
2017-Nov-15 05:42N 34°57' E 139°23'412.1
2017-Nov-15 05:24N 34°59' E 139°26'512.0
2017-Nov-15 05:00N 35°01' E 139°31'611.9
2017-Nov-15 04:30N 35°04' E 139°37'612.4
2017-Nov-15 04:00N 35°08' E 139°43'612.5
2017-Nov-15 03:30N 35°14' E 139°46'612.0
2017-Nov-15 03:01N 35°19' E 139°43'5 9.7
2017-Nov-15 02:31N 35°24' E 139°44'0 0.5
2017-Nov-15 02:00N 35°24' E 139°44'0 0.0
2017-Nov-15 01:30N 35°24' E 139°44'0 0.0
2017-Nov-15 01:00N 35°24' E 139°44'0 0.1
2017-Nov-15 00:30N 35°24' E 139°44'0 0.0
2017-Nov-15 00:00N 35°24' E 139°44'0 0.1
2017-Nov-14 23:31N 35°24' E 139°44'0 0.0
2017-Nov-14 23:00N 35°24' E 139°44'0 0.1
2017-Nov-14 22:30N 35°24' E 139°44'0 0.0
2017-Nov-14 22:00N 35°24' E 139°44'3 5.6
2017-Nov-14 21:30N 35°26' E 139°42'3 6.6
2017-Nov-14 21:00N 35°29' E 139°40'0 0.1
2017-Nov-14 20:29N 35°29' E 139°40'0 0.0
2017-Nov-14 19:59N 35°29' E 139°40'0 0.0
2017-Nov-14 19:29N 35°29' E 139°40'0 0.0
2017-Nov-14 18:59N 35°29' E 139°40'0 0.0
2017-Nov-14 18:29N 35°29' E 139°40'0 0.0
2017-Nov-14 17:59N 35°29' E 139°40'0 0.0
2017-Nov-14 17:29N 35°29' E 139°40'0 0.0
2017-Nov-14 16:59N 35°29' E 139°40'0 0.0
2017-Nov-14 16:29N 35°29' E 139°40'0 0.0
2017-Nov-14 15:59N 35°29' E 139°40'0 0.0
2017-Nov-14 15:29N 35°29' E 139°40'0 0.0
2017-Nov-14 14:59N 35°29' E 139°40'0 0.0
2017-Nov-14 14:29N 35°29' E 139°40'0 0.0
2017-Nov-14 13:59N 35°29' E 139°40'0 0.0
2017-Nov-14 13:29N 35°29' E 139°40'0 0.0
2017-Nov-14 12:59N 35°29' E 139°40'0 0.0
2017-Nov-14 12:29N 35°29' E 139°40'0 0.0
2017-Nov-14 11:59N 35°29' E 139°40'0 0.0
2017-Nov-14 11:29N 35°29' E 139°40'0 0.0
2017-Nov-14 10:59N 35°29' E 139°40'0 0.0
2017-Nov-14 10:29N 35°29' E 139°40'0 0.0
2017-Nov-14 09:59N 35°29' E 139°40'0 0.0
2017-Nov-14 09:29N 35°29' E 139°40'0 0.0
2017-Nov-14 08:59N 35°29' E 139°40'0 0.0
2017-Nov-14 08:29N 35°29' E 139°40'0 0.0
2017-Nov-14 07:59N 35°29' E 139°40'0 0.0
2017-Nov-14 07:29N 35°29' E 139°40'0 0.0
2017-Nov-14 06:59N 35°29' E 139°40'1 2.1
2017-Nov-14 06:31N 35°28' E 139°40'5 9.9
2017-Nov-14 06:01N 35°23' E 139°42'611.1
2017-Nov-14 05:30N 35°18' E 139°45'510.7
2017-Nov-14 05:00N 35°13' E 139°47'611.3
2017-Nov-14 04:30N 35°07' E 139°46'610.6
2017-Nov-14 03:59N 35°03' E 139°43'611.4
2017-Nov-14 03:29N 34°59' E 139°37'511.3
2017-Nov-14 03:00N 34°56' E 139°31'228 4.8
2017-Nov-12 03:08N 34°37' E 134°54'213.3
2017-Nov-12 03:00N 34°37' E 134°56'611.7
2017-Nov-12 02:30N 34°36' E 135°03'611.4
2017-Nov-12 02:00N 34°36' E 135°10'612.2
2017-Nov-12 01:30N 34°37' E 135°18'612.2
2017-Nov-12 01:00N 34°39' E 135°25'3 5.1
2017-Nov-12 00:30N 34°38' E 135°28'0 0.3
2017-Nov-11 23:18N 34°38' E 135°28'0 0.0
2017-Nov-11 17:00N 34°38' E 135°28'0 0.0
2017-Nov-11 16:24N 34°38' E 135°28'0 0.0
2017-Nov-11 16:00N 34°38' E 135°28'0 0.0
2017-Nov-11 15:30N 34°38' E 135°28'0 0.0
2017-Nov-11 15:00N 34°38' E 135°28'0 0.0
2017-Nov-11 14:18N 34°38' E 135°28'0 0.0
2017-Nov-11 14:00N 34°38' E 135°28'0 0.0
2017-Nov-11 13:30N 34°38' E 135°28'0 0.0
2017-Nov-11 13:00N 34°38' E 135°28'0 0.0
2017-Nov-11 12:24N 34°38' E 135°28'0 0.0
2017-Nov-11 12:00N 34°38' E 135°28'0 0.0
2017-Nov-11 11:30N 34°38' E 135°28'0 0.0
2017-Nov-11 11:00N 34°38' E 135°28'0 0.0
2017-Nov-11 10:30N 34°38' E 135°28'0 0.0
2017-Nov-11 09:18N 34°38' E 135°28'0 0.0
2017-Nov-11 05:54N 34°38' E 135°28'0 0.0
2017-Nov-11 05:24N 34°38' E 135°28'0 0.0
2017-Nov-11 05:00N 34°38' E 135°28'0 0.0
2017-Nov-11 04:30N 34°38' E 135°28'0 0.0
2017-Nov-11 04:00N 34°38' E 135°28'0 0.0
2017-Nov-11 03:30N 34°38' E 135°28'0 0.0
2017-Nov-11 02:54N 34°38' E 135°28'0 0.0
2017-Nov-11 02:30N 34°38' E 135°28'0 0.0
2017-Nov-11 01:18N 34°38' E 135°28'0 0.0
2017-Nov-11 00:54N 34°38' E 135°28'0 0.0
2017-Nov-11 00:24N 34°38' E 135°28'0 0.0
2017-Nov-11 00:00N 34°38' E 135°28'0 0.0
2017-Nov-10 23:24N 34°38' E 135°28'0 0.0
2017-Nov-10 23:00N 34°38' E 135°28'0 0.0
2017-Nov-10 22:30N 34°38' E 135°28'1 1.7
2017-Nov-10 22:00N 34°38' E 135°27'3 6.0
2017-Nov-10 21:30N 34°38' E 135°23'5 9.3
2017-Nov-10 21:00N 34°36' E 135°19'0 0.1
2017-Nov-10 20:21N 34°36' E 135°19'0 0.0
2017-Nov-10 19:51N 34°36' E 135°19'0 0.0
2017-Nov-10 19:27N 34°36' E 135°19'0 0.0
2017-Nov-10 18:51N 34°36' E 135°19'0 0.1
2017-Nov-10 18:15N 34°36' E 135°19'0 0.0
2017-Nov-10 17:09N 34°36' E 135°19'0 0.0
2017-Nov-10 15:51N 34°36' E 135°19'1 2.8
2017-Nov-10 15:30N 34°35' E 135°18'611.7
2017-Nov-10 15:00N 34°30' E 135°14'611.6
2017-Nov-10 14:30N 34°26' E 135°10'611.6
2017-Nov-10 14:01N 34°21' E 135°06'611.5
2017-Nov-10 13:30N 34°16' E 135°03'611.4
2017-Nov-10 13:00N 34°10' E 135°01'711.4
2017-Nov-10 12:24N 34°04' E 134°58'  
2017-Nov-06 02:28N 35°26' E 139°42'0 0.0
2017-Nov-06 01:58N 35°26' E 139°42'0 0.0
2017-Nov-06 01:28N 35°26' E 139°42'0 0.0
2017-Nov-06 00:58N 35°26' E 139°42'0 0.0
2017-Nov-06 00:25N 35°26' E 139°42'0 0.0
2017-Nov-05 23:58N 35°26' E 139°42'0 0.0
2017-Nov-05 23:28N 35°26' E 139°42'0 0.0
2017-Nov-05 22:58N 35°26' E 139°42'0 0.0
2017-Nov-05 22:28N 35°26' E 139°42'0 0.0
2017-Nov-05 21:55N 35°26' E 139°42'0 0.0
2017-Nov-05 21:25N 35°26' E 139°42'0 0.1
2017-Nov-05 20:58N 35°26' E 139°42'0 0.0
2017-Nov-05 20:28N 35°26' E 139°42'0 0.1
2017-Nov-05 19:58N 35°26' E 139°42'0 0.0
2017-Nov-05 19:25N 35°26' E 139°42'0 0.0
2017-Nov-05 18:58N 35°26' E 139°42'0 0.0
2017-Nov-05 18:28N 35°26' E 139°42'0 0.0
2017-Nov-05 17:58N 35°26' E 139°42'0 0.1
2017-Nov-05 17:28N 35°26' E 139°42'0 0.0
2017-Nov-05 16:58N 35°26' E 139°42'0 0.0
2017-Nov-05 16:28N 35°26' E 139°42'0 0.1
2017-Nov-05 16:00N 35°26' E 139°42'510.5
2017-Nov-05 15:30N 35°21' E 139°43'611.3
2017-Nov-05 15:00N 35°16' E 139°46'510.2
2017-Nov-05 14:30N 35°11' E 139°46'510.4
2017-Nov-05 14:00N 35°06' E 139°45'510.9
2017-Nov-05 13:30N 35°02' E 139°39'612.3
2017-Nov-05 13:00N 34°59' E 139°33'612.5
2017-Nov-05 12:30N 34°55' E 139°27'  

Dump ship's entire track history